Terminal Aerodrome Forecast
Issued by NWS Omaha/Valley, NE

Home | Current Version | Previous Version | Graphics & Text | Print | Product List | Glossary On
Versions: 1 2 3 4 5 6 7 8 9 10 11 12 13 14 15 16 17 18 19 20
000
FTUS43 KOAX 191740
TAFOFK
TAF
KOFK 191740Z 1918/2018 15013G20KT P6SM SKC
     FM200000 17012KT P6SM FEW250
     FM200400 19009KT P6SM SCT250 WS020/21045KT
     FM200600 19007KT P6SM VCTS SCT060CB BKN200
     FM200800 36007KT P6SM BKN120=

USA.gov is the U.S. government's official web portal to all federal, state and local government web resources and services.